createdAt,value
2023-04-15T00:00:58.878Z,5.80
2023-04-15T00:03:27.139Z,5.70
2023-04-15T00:05:55.387Z,5.80
2023-04-15T00:08:23.743Z,5.80
2023-04-15T00:10:53.355Z,5.80
2023-04-15T00:13:21.437Z,5.90
2023-04-15T00:15:49.525Z,5.90
2023-04-15T00:18:17.769Z,6.10
2023-04-15T00:20:45.841Z,6.10
2023-04-15T00:23:13.905Z,6.10
2023-04-15T00:25:42.314Z,6.10
2023-04-15T00:28:11.821Z,6.00
2023-04-15T00:30:40.002Z,6.10
2023-04-15T00:33:08.612Z,6.10
2023-04-15T00:35:37.711Z,6.10
2023-04-15T00:38:08.024Z,6.10
2023-04-15T00:40:36.792Z,6.10
2023-04-15T00:43:05.729Z,6.10
2023-04-15T00:45:35.125Z,6.20
2023-04-15T00:48:03.603Z,6.20
2023-04-15T00:50:31.765Z,6.20
2023-04-15T00:52:59.831Z,6.20
2023-04-15T00:55:28.095Z,6.20
2023-04-15T00:57:57.249Z,6.20
2023-04-15T01:00:26.716Z,6.30
2023-04-15T01:02:56.234Z,6.30
2023-04-15T01:05:25.151Z,6.30
2023-04-15T01:07:53.189Z,6.30
2023-04-15T01:10:21.372Z,6.30
2023-04-15T01:12:49.751Z,6.20
2023-04-15T01:15:18.204Z,6.20
2023-04-15T01:17:46.459Z,6.20
2023-04-15T01:20:16.764Z,6.20
2023-04-15T01:22:45.233Z,6.20
2023-04-15T01:25:19.485Z,6.20
2023-04-15T01:27:49.440Z,6.20
2023-04-15T01:30:17.647Z,6.10
2023-04-15T01:32:46.073Z,6.10
2023-04-15T01:35:14.334Z,6.10
2023-04-15T01:37:42.694Z,6.10
2023-04-15T01:40:11.560Z,6.10
2023-04-15T01:42:39.604Z,6.20
2023-04-15T01:45:10.925Z,6.30
2023-04-15T01:47:39.278Z,6.30
2023-04-15T01:50:08.777Z,6.30
2023-04-15T01:52:36.830Z,6.30
2023-04-15T01:55:06.272Z,6.20
2023-04-15T01:57:34.603Z,6.10
2023-04-15T02:00:02.688Z,6.10
2023-04-15T02:02:32.298Z,6.00
2023-04-15T02:05:00.526Z,6.00
2023-04-15T02:07:28.969Z,6.00
2023-04-15T02:09:57.683Z,6.00
2023-04-15T02:12:26.017Z,6.00
2023-04-15T02:14:54.322Z,6.00
2023-04-15T02:17:22.531Z,6.10
2023-04-15T02:19:51.932Z,6.10
2023-04-15T02:22:19.952Z,6.10
2023-04-15T02:24:48.086Z,6.10
2023-04-15T02:27:19.732Z,6.00
2023-04-15T02:29:47.995Z,6.00
2023-04-15T02:32:16.364Z,6.00
2023-04-15T02:34:44.521Z,6.00
2023-04-15T02:37:16.121Z,6.10
2023-04-15T02:39:44.201Z,6.20
2023-04-15T02:42:13.337Z,6.20
2023-04-15T02:44:41.768Z,6.20
2023-04-15T02:47:11.739Z,6.30
2023-04-15T02:49:40.298Z,6.40
2023-04-15T02:52:08.333Z,6.30
2023-04-15T02:54:37.710Z,6.30
2023-04-15T02:57:06.838Z,6.20
2023-04-15T02:59:34.880Z,6.20
2023-04-15T03:02:03.076Z,6.20
2023-04-15T03:04:31.278Z,6.20
2023-04-15T03:07:02.543Z,6.20
2023-04-15T03:09:30.642Z,6.10
2023-04-15T03:12:00.134Z,6.10
2023-04-15T03:14:28.177Z,6.00
2023-04-15T03:16:56.263Z,6.00
2023-04-15T03:19:24.428Z,6.00
2023-04-15T03:21:52.816Z,6.00
2023-04-15T03:24:22.019Z,6.00
2023-04-15T03:26:50.073Z,6.10
2023-04-15T03:29:19.552Z,6.10
2023-04-15T03:31:47.612Z,6.10
2023-04-15T03:34:15.931Z,6.00
2023-04-15T03:36:44.076Z,6.00
2023-04-15T03:39:12.341Z,5.90
2023-04-15T03:41:40.522Z,5.90
2023-04-15T03:44:08.765Z,5.90
2023-04-15T03:46:38.271Z,5.90
2023-04-15T03:49:08.982Z,5.90
2023-04-15T03:51:37.156Z,5.90
2023-04-15T03:54:05.706Z,5.90
2023-04-15T03:56:33.767Z,5.90
2023-04-15T03:59:02.188Z,5.90
2023-04-15T04:01:30.728Z,6.00
2023-04-15T04:04:00.281Z,6.00
2023-04-15T04:06:28.416Z,6.00
2023-04-15T04:08:56.771Z,6.00
2023-04-15T04:11:24.844Z,6.00
2023-04-15T04:13:52.897Z,6.00
2023-04-15T04:16:21.202Z,6.10
2023-04-15T04:18:49.338Z,6.00
2023-04-15T04:21:18.852Z,6.10
2023-04-15T04:23:47.043Z,6.00
2023-04-15T04:26:15.097Z,6.00
2023-04-15T04:28:43.121Z,6.00
2023-04-15T04:31:11.429Z,6.00
2023-04-15T04:33:39.695Z,6.00
2023-04-15T04:36:08.557Z,6.00
2023-04-15T04:38:37.965Z,6.00
2023-04-15T04:41:06.670Z,6.00
2023-04-15T04:43:34.736Z,6.00
2023-04-15T04:46:03.052Z,6.00
2023-04-15T04:48:31.284Z,6.00
2023-04-15T04:50:59.556Z,6.00
2023-04-15T04:53:28.042Z,6.00
2023-04-15T04:55:57.483Z,6.10
2023-04-15T04:58:25.830Z,6.10
2023-04-15T05:00:53.961Z,6.20
2023-04-15T05:03:24.680Z,6.30
2023-04-15T05:05:52.902Z,6.40
2023-04-15T05:08:20.927Z,6.40
2023-04-15T05:10:49.013Z,6.50
2023-04-15T05:13:18.385Z,6.50
2023-04-15T05:15:46.566Z,6.50
2023-04-15T05:18:14.760Z,6.50
2023-04-15T05:20:42.887Z,6.60
2023-04-15T05:23:10.995Z,6.60
2023-04-15T05:25:39.023Z,6.70
2023-04-15T05:28:07.619Z,6.70
2023-04-15T05:30:37.109Z,6.80
2023-04-15T05:33:05.888Z,6.80
2023-04-15T05:35:33.931Z,6.90
2023-04-15T05:38:01.988Z,7.00
2023-04-15T05:40:30.103Z,7.00
2023-04-15T05:42:58.154Z,7.10
2023-04-15T05:45:26.291Z,7.10
2023-04-15T05:47:55.742Z,7.20
2023-04-15T05:50:24.476Z,7.30
2023-04-15T05:52:52.533Z,7.40
2023-04-15T05:55:20.814Z,7.60
2023-04-15T05:57:49.063Z,7.70
2023-04-15T06:00:17.537Z,7.80
2023-04-15T06:02:45.762Z,7.90
2023-04-15T06:05:15.235Z,8.00
2023-04-15T06:07:44.070Z,8.10
2023-04-15T06:10:12.881Z,8.20
2023-04-15T06:12:41.026Z,8.30
2023-04-15T06:15:11.230Z,8.50
2023-04-15T06:17:39.494Z,8.60
2023-04-15T06:20:08.846Z,8.80
2023-04-15T06:22:39.209Z,9.10
2023-04-15T06:25:09.482Z,9.30
2023-04-15T06:27:37.733Z,9.50
2023-04-15T06:30:07.480Z,9.70
2023-04-15T06:32:35.701Z,10.00
2023-04-15T06:35:04.027Z,10.20
2023-04-15T06:37:32.669Z,10.40
2023-04-15T06:40:02.337Z,10.70
2023-04-15T06:42:30.599Z,11.10
2023-04-15T06:44:58.642Z,11.20
2023-04-15T06:47:26.739Z,11.10
2023-04-15T06:49:54.846Z,10.80
2023-04-15T06:52:22.833Z,10.70
2023-04-15T06:54:51.200Z,10.50
2023-04-15T06:57:20.784Z,10.40
2023-04-15T06:59:48.852Z,10.40
2023-04-15T07:02:17.000Z,10.40
2023-04-15T07:04:45.023Z,10.30
2023-04-15T07:07:13.399Z,10.20
2023-04-15T07:09:41.646Z,10.10
2023-04-15T07:12:12.432Z,10.00
2023-04-15T07:14:41.883Z,10.00
2023-04-15T07:17:11.485Z,10.00
2023-04-15T07:19:39.617Z,10.10
2023-04-15T07:22:08.006Z,10.10
2023-04-15T07:24:36.056Z,10.30
2023-04-15T07:27:04.223Z,10.50
2023-04-15T07:29:32.523Z,10.80
2023-04-15T07:32:02.001Z,11.20
2023-04-15T07:34:31.435Z,11.40
2023-04-15T07:37:00.778Z,11.70
2023-04-15T07:39:29.339Z,12.20
2023-04-15T07:41:59.059Z,12.70
2023-04-15T07:44:27.566Z,13.10
2023-04-15T07:46:56.088Z,13.60
2023-04-15T07:49:25.744Z,14.00
2023-04-15T07:51:55.206Z,14.10
2023-04-15T07:54:23.285Z,14.60
2023-04-15T07:56:51.337Z,14.80
2023-04-15T07:59:19.370Z,15.30
2023-04-15T08:01:47.535Z,15.30
2023-04-15T08:04:15.852Z,15.80
2023-04-15T08:06:45.428Z,16.60
2023-04-15T08:09:13.645Z,17.10
2023-04-15T08:11:42.707Z,18.20
2023-04-15T08:14:10.832Z,19.10
2023-04-15T08:16:38.955Z,20.10
2023-04-15T08:19:08.046Z,20.50
2023-04-15T08:21:36.641Z,20.80
2023-04-15T08:24:08.033Z,20.40
2023-04-15T08:26:36.299Z,20.40
2023-04-15T08:29:04.670Z,20.30
2023-04-15T08:31:33.167Z,20.90
2023-04-15T08:34:01.360Z,20.80
2023-04-15T08:36:29.566Z,20.20
2023-04-15T08:38:57.737Z,21.20
2023-04-15T08:41:30.617Z,21.00
2023-04-15T08:44:03.141Z,19.80
2023-04-15T08:46:34.045Z,19.80
2023-04-15T08:49:07.073Z,19.70
2023-04-15T08:51:35.568Z,19.90
2023-04-15T08:54:05.328Z,19.60
2023-04-15T08:56:35.632Z,19.40
2023-04-15T08:59:05.370Z,19.40
2023-04-15T09:01:34.076Z,19.20
2023-04-15T09:04:06.632Z,19.10
2023-04-15T09:06:35.716Z,18.90
2023-04-15T09:09:04.019Z,18.90
2023-04-15T09:11:33.943Z,18.90
2023-04-15T09:14:02.119Z,18.80
2023-04-15T09:16:30.302Z,20.10
2023-04-15T09:18:58.432Z,21.40
2023-04-15T09:21:26.762Z,22.70
2023-04-15T09:24:00.385Z,24.30
2023-04-15T09:26:36.070Z,25.00
2023-04-15T09:29:07.900Z,24.90
2023-04-15T09:31:36.929Z,24.50
2023-04-15T09:34:05.088Z,24.50
2023-04-15T09:36:54.297Z,24.60
2023-04-15T09:39:22.740Z,24.20
2023-04-15T09:44:47.325Z,24.10
2023-04-15T09:47:29.804Z,23.30
2023-04-15T09:49:58.691Z,23.20
2023-04-15T09:52:27.305Z,23.10
2023-04-15T09:54:57.006Z,23.10
2023-04-15T09:57:25.770Z,22.80
2023-04-15T09:59:55.269Z,22.90
2023-04-15T10:02:24.215Z,22.90
2023-04-15T10:04:54.718Z,22.30
2023-04-15T10:07:24.163Z,22.10
2023-04-15T10:09:53.009Z,21.90
2023-04-15T10:12:23.142Z,22.40
2023-04-15T10:15:00.346Z,21.80
2023-04-15T10:17:31.728Z,21.80
2023-04-15T10:20:02.912Z,21.40
2023-04-15T10:22:32.549Z,21.70
2023-04-15T10:25:01.133Z,21.80
2023-04-15T10:27:29.900Z,21.40
2023-04-15T10:30:01.774Z,20.80
2023-04-15T10:32:30.768Z,20.30
2023-04-15T10:35:00.428Z,19.90
2023-04-15T10:37:37.300Z,20.30
2023-04-15T10:40:29.173Z,20.90
2023-04-15T10:42:58.669Z,20.80
2023-04-15T10:45:37.648Z,21.30
2023-04-15T10:48:08.855Z,21.90
2023-04-15T10:50:39.290Z,22.90
2023-04-15T10:53:07.474Z,23.70
2023-04-15T10:55:36.293Z,24.50
2023-04-15T10:58:04.536Z,24.70
2023-04-15T11:00:39.520Z,23.80
2023-04-15T11:03:09.784Z,22.40
2023-04-15T11:05:52.678Z,21.50
2023-04-15T11:08:22.066Z,22.00
2023-04-15T11:10:57.268Z,22.60
2023-04-15T11:13:29.397Z,23.50
2023-04-15T11:16:01.693Z,25.30
2023-04-15T11:18:33.714Z,25.80
2023-04-15T11:21:05.903Z,25.00
2023-04-15T11:23:39.806Z,24.30
2023-04-15T11:26:11.829Z,21.70
2023-04-15T11:28:41.963Z,20.40
2023-04-15T11:31:14.187Z,20.90
2023-04-15T11:33:55.549Z,21.50
2023-04-15T11:36:28.189Z,21.50
2023-04-15T11:38:59.169Z,21.30
2023-04-15T11:41:27.365Z,21.00
2023-04-15T11:43:55.474Z,21.10
2023-04-15T11:46:31.904Z,21.60
2023-04-15T11:49:00.241Z,22.70
2023-04-15T11:51:33.532Z,23.70
2023-04-15T11:54:01.833Z,22.80
2023-04-15T11:56:30.025Z,21.10
2023-04-15T11:59:00.332Z,20.70
2023-04-15T12:01:39.356Z,21.30
2023-04-15T12:04:13.759Z,22.50
2023-04-15T12:06:42.109Z,21.90
2023-04-15T12:09:13.224Z,20.80
2023-04-15T12:11:45.045Z,19.70
2023-04-15T12:14:26.174Z,19.50
2023-04-15T12:17:00.449Z,21.00
2023-04-15T12:19:32.483Z,21.80
2023-04-15T12:22:03.379Z,21.70
2023-04-15T12:24:34.528Z,21.80
2023-04-15T12:27:07.109Z,22.10
2023-04-15T12:29:38.287Z,22.20
2023-04-15T12:32:10.443Z,22.40
2023-04-15T12:34:40.747Z,23.00
2023-04-15T12:37:13.148Z,22.60
2023-04-15T12:39:43.734Z,22.20
2023-04-15T12:42:12.978Z,21.80
2023-04-15T12:44:41.784Z,22.60
2023-04-15T12:47:12.480Z,22.90
2023-04-15T12:49:41.106Z,22.50
2023-04-15T12:52:09.519Z,22.80
2023-04-15T12:54:37.492Z,23.50
2023-04-15T12:57:07.423Z,23.20
2023-04-15T12:59:35.786Z,22.90
2023-04-15T13:02:05.717Z,22.70
2023-04-15T13:04:35.362Z,21.20
2023-04-15T13:07:03.780Z,20.60
2023-04-15T13:09:32.393Z,20.30
2023-04-15T13:12:00.473Z,20.60
2023-04-15T13:14:28.574Z,20.60
2023-04-15T13:16:56.953Z,20.90
2023-04-15T13:19:24.993Z,20.90
2023-04-15T13:21:54.490Z,21.10
2023-04-15T13:24:22.469Z,21.50
2023-04-15T13:26:50.620Z,21.30
2023-04-15T13:29:18.737Z,21.20
2023-04-15T13:31:46.875Z,21.00
2023-04-15T13:34:14.918Z,21.10
2023-04-15T13:36:42.978Z,21.30
2023-04-15T13:39:12.425Z,20.80
2023-04-15T13:41:41.328Z,20.80
2023-04-15T13:44:09.389Z,20.70
2023-04-15T13:46:37.859Z,20.30
2023-04-15T13:49:06.075Z,19.60
2023-04-15T13:51:36.038Z,18.80
2023-04-15T13:54:04.119Z,18.60
2023-04-15T13:56:33.635Z,18.60
2023-04-15T13:59:02.402Z,18.80
2023-04-15T14:01:31.183Z,19.20
2023-04-15T14:03:59.357Z,19.70
2023-04-15T14:06:28.430Z,20.00
2023-04-15T14:08:56.790Z,19.70
2023-04-15T14:11:24.868Z,19.10
2023-04-15T14:13:54.243Z,19.20
2023-04-15T14:16:22.375Z,19.20
2023-04-15T14:18:50.632Z,19.30
2023-04-15T14:21:18.739Z,19.40
2023-04-15T14:23:46.724Z,19.60
2023-04-15T14:26:14.947Z,19.40
2023-04-15T14:28:44.874Z,19.00
2023-04-15T14:31:14.471Z,18.60
2023-04-15T14:33:42.780Z,18.30
2023-04-15T14:36:11.358Z,18.20
2023-04-15T14:38:40.172Z,18.20
2023-04-15T14:41:09.059Z,18.10
2023-04-15T14:43:37.478Z,18.20
2023-04-15T14:46:05.792Z,17.70
2023-04-15T14:48:35.365Z,17.70
2023-04-15T14:51:03.504Z,17.90
2023-04-15T14:53:31.546Z,17.50
2023-04-15T14:55:59.740Z,17.40
2023-04-15T14:58:27.830Z,17.60
2023-04-15T15:00:55.934Z,17.70
2023-04-15T15:03:24.543Z,17.90
2023-04-15T15:05:54.125Z,17.90
2023-04-15T15:08:22.391Z,18.40
2023-04-15T15:10:50.664Z,18.00
2023-04-15T15:13:20.095Z,17.90
2023-04-15T15:15:50.475Z,18.00
2023-04-15T15:18:19.745Z,18.10
2023-04-15T15:20:48.080Z,17.90
2023-04-15T15:23:17.604Z,18.10
2023-04-15T15:25:47.381Z,18.30
2023-04-15T15:28:15.516Z,18.90
2023-04-15T15:30:43.553Z,19.10
2023-04-15T15:33:11.701Z,19.30
2023-04-15T15:35:40.910Z,19.40
2023-04-15T15:38:08.965Z,19.40
2023-04-15T15:40:38.320Z,19.20
2023-04-15T15:43:06.379Z,18.50
2023-04-15T15:45:34.425Z,18.30
2023-04-15T15:48:03.071Z,18.00
2023-04-15T15:50:31.267Z,17.80
2023-04-15T15:52:59.526Z,17.60
2023-04-15T15:55:27.941Z,17.40
2023-04-15T15:57:57.345Z,17.10
2023-04-15T16:00:25.613Z,16.80
2023-04-15T16:05:29.135Z,16.60
2023-04-15T16:07:57.149Z,16.70
2023-04-15T16:10:25.334Z,16.50
2023-04-15T16:12:53.434Z,16.40
2023-04-15T16:15:24.649Z,16.20
2023-04-15T16:17:52.781Z,16.10
2023-04-15T16:20:20.881Z,16.00
2023-04-15T16:22:49.113Z,16.00
2023-04-15T16:25:17.189Z,16.00
2023-04-15T16:27:57.826Z,16.10
2023-04-15T16:30:32.896Z,16.10
2023-04-15T16:33:01.027Z,15.70
2023-04-15T16:35:29.278Z,15.40
2023-04-15T16:37:57.653Z,15.20
2023-04-15T16:40:26.052Z,15.40
2023-04-15T16:42:54.378Z,15.60
2023-04-15T16:45:22.393Z,15.80
2023-04-15T16:47:51.815Z,15.80
2023-04-15T16:50:19.880Z,15.80
2023-04-15T16:52:47.899Z,15.70
2023-04-15T16:55:15.976Z,15.70
2023-04-15T16:58:02.772Z,15.50
2023-04-15T17:00:32.914Z,15.50
2023-04-15T17:03:02.836Z,15.50
2023-04-15T17:05:31.568Z,15.40
2023-04-15T17:07:59.614Z,15.40
2023-04-15T17:10:27.797Z,15.30
2023-04-15T17:12:58.371Z,15.10
2023-04-15T17:15:27.144Z,14.90
2023-04-15T17:17:55.512Z,14.80
2023-04-15T17:20:26.396Z,14.60
2023-04-15T17:22:54.477Z,14.60
2023-04-15T17:25:22.621Z,14.50
2023-04-15T17:27:50.767Z,14.30
2023-04-15T17:30:18.968Z,14.20
2023-04-15T17:32:47.109Z,14.20
2023-04-15T17:35:16.521Z,14.20
2023-04-15T17:37:48.563Z,14.10
2023-04-15T17:40:16.598Z,14.10
2023-04-15T17:42:44.661Z,14.10
2023-04-15T17:45:13.244Z,14.00
2023-04-15T17:47:41.469Z,13.90
2023-04-15T17:50:10.701Z,13.90
2023-04-15T17:52:38.734Z,13.90
2023-04-15T17:55:09.756Z,13.90
2023-04-15T17:57:37.889Z,13.70
2023-04-15T18:00:08.827Z,13.60
2023-04-15T18:02:37.404Z,13.50
2023-04-15T18:05:06.906Z,13.40
2023-04-15T18:07:35.289Z,13.40
2023-04-15T18:10:03.411Z,13.40
2023-04-15T18:12:32.788Z,13.20
2023-04-15T18:15:01.078Z,13.20
2023-04-15T18:17:29.549Z,13.10
2023-04-15T18:19:57.646Z,13.00
2023-04-15T18:22:25.750Z,13.00
2023-04-15T18:24:54.520Z,12.90
2023-04-15T18:27:22.784Z,12.90
2023-04-15T18:29:52.375Z,12.80
2023-04-15T18:32:20.511Z,12.80
2023-04-15T18:34:48.560Z,12.80
2023-04-15T18:37:16.676Z,12.70
2023-04-15T18:39:44.816Z,12.60
2023-04-15T18:42:12.905Z,12.60
2023-04-15T18:44:40.882Z,12.60
2023-04-15T18:47:10.293Z,12.60
2023-04-15T18:49:38.434Z,12.50
2023-04-15T18:52:06.571Z,12.60
2023-04-15T18:54:34.730Z,12.50
2023-04-15T18:57:03.914Z,12.50
2023-04-15T18:59:32.397Z,12.50
2023-04-15T19:02:01.355Z,12.50
2023-04-15T19:04:30.920Z,12.40
2023-04-15T19:06:59.751Z,12.40
2023-04-15T19:09:29.246Z,12.40
2023-04-15T19:11:57.839Z,12.40
2023-04-15T19:14:25.877Z,12.30
2023-04-15T19:16:53.983Z,12.30
2023-04-15T19:19:22.248Z,12.20
2023-04-15T19:21:53.565Z,12.20
2023-04-15T19:24:21.972Z,12.20
2023-04-15T19:26:51.387Z,12.20
2023-04-15T19:29:19.834Z,12.30
2023-04-15T19:31:47.861Z,12.20
2023-04-15T19:34:16.043Z,12.30
2023-04-15T19:36:44.345Z,12.30
2023-04-15T19:39:14.527Z,12.40
2023-04-15T19:41:44.210Z,12.50
2023-04-15T19:44:13.000Z,12.30
2023-04-15T19:46:41.929Z,12.30
2023-04-15T19:49:10.216Z,12.10
2023-04-15T19:51:38.272Z,12.10
2023-04-15T19:54:06.485Z,12.10
2023-04-15T19:56:36.202Z,12.10
2023-04-15T19:59:04.484Z,12.10
2023-04-15T20:01:33.431Z,12.00
2023-04-15T20:04:03.429Z,12.10
2023-04-15T20:06:31.610Z,12.00
2023-04-15T20:08:59.947Z,12.00
2023-04-15T20:12:09.929Z,12.00
2023-04-15T20:14:18.891Z,12.00
2023-04-15T20:16:47.735Z,11.90
2023-04-15T20:19:15.787Z,11.90
2023-04-15T20:21:43.859Z,11.90
2023-04-15T20:24:11.952Z,11.80
2023-04-15T20:26:39.974Z,11.70
2023-04-15T20:29:08.278Z,11.60
2023-04-15T20:31:37.932Z,11.60
2023-04-15T20:34:06.044Z,11.50
2023-04-15T20:36:34.328Z,11.50
2023-04-15T20:39:02.392Z,11.40
2023-04-15T20:41:30.433Z,11.40
2023-04-15T20:43:58.498Z,11.50
2023-04-15T20:46:27.843Z,11.40
2023-04-15T20:48:57.441Z,11.40
2023-04-15T20:51:27.108Z,11.50
2023-04-15T20:53:55.553Z,11.50
2023-04-15T20:56:23.564Z,11.50
2023-04-15T20:58:51.878Z,11.50
2023-04-15T21:01:19.999Z,11.50
2023-04-15T21:03:48.354Z,11.40
2023-04-15T21:06:17.935Z,11.40
2023-04-15T21:08:45.987Z,11.40
2023-04-15T21:11:21.878Z,11.40
2023-04-15T21:13:56.663Z,11.40
2023-04-15T21:16:24.793Z,11.30
2023-04-15T21:18:52.837Z,11.30
2023-04-15T21:21:22.225Z,11.30
2023-04-15T21:23:50.356Z,11.20
2023-04-15T21:26:18.416Z,11.20
2023-04-15T21:28:46.418Z,11.20
2023-04-15T21:31:14.414Z,11.20
2023-04-15T21:33:42.490Z,11.20
2023-04-15T21:36:10.805Z,11.10
2023-04-15T21:38:40.224Z,11.10
2023-04-15T21:41:09.718Z,11.10
2023-04-15T21:43:38.238Z,11.10
2023-04-15T21:46:23.647Z,11.20
2023-04-15T21:48:53.817Z,11.10
2023-04-15T21:51:22.339Z,11.10
2023-04-15T21:53:52.575Z,11.00
2023-04-15T21:56:23.076Z,11.00
2023-04-15T21:58:51.288Z,10.90
2023-04-15T22:01:19.336Z,10.90
2023-04-15T22:03:47.625Z,10.90
2023-04-15T22:06:15.770Z,10.90
2023-04-15T22:08:55.164Z,10.90
2023-04-15T22:11:30.928Z,10.90
2023-04-15T22:14:00.083Z,10.90
2023-04-15T22:16:29.050Z,10.80
2023-04-15T22:18:57.192Z,10.80
2023-04-15T22:21:25.537Z,10.80
2023-04-15T22:24:37.263Z,10.80
2023-04-15T22:26:43.388Z,10.70
2023-04-15T22:29:11.631Z,10.70
2023-04-15T22:31:39.748Z,10.60
2023-04-15T22:34:08.568Z,10.60
2023-04-15T22:36:36.638Z,10.60
2023-04-15T22:39:05.015Z,10.60
2023-04-15T22:41:33.325Z,10.60
2023-04-15T22:44:02.672Z,10.60
2023-04-15T22:46:30.820Z,10.60
2023-04-15T22:48:58.894Z,10.50
2023-04-15T22:51:28.052Z,10.50
2023-04-15T22:53:56.414Z,10.50
2023-04-15T22:56:24.798Z,10.40
2023-04-15T22:58:53.272Z,10.40
2023-04-15T23:01:22.696Z,10.40
2023-04-15T23:03:58.548Z,10.40
2023-04-15T23:06:35.329Z,10.30
2023-04-15T23:09:03.395Z,10.30
2023-04-15T23:11:31.716Z,10.30
2023-04-15T23:13:59.752Z,10.30
2023-04-15T23:16:29.179Z,10.30
2023-04-15T23:18:57.236Z,10.30
2023-04-15T23:21:27.314Z,10.20
2023-04-15T23:23:55.458Z,10.20
2023-04-15T23:26:25.024Z,10.20
2023-04-15T23:28:53.046Z,10.10
2023-04-15T23:31:21.177Z,10.10
2023-04-15T23:33:50.558Z,10.10
2023-04-15T23:36:18.703Z,10.10
2023-04-15T23:38:46.713Z,10.10
2023-04-15T23:41:15.034Z,10.10
2023-04-15T23:43:43.114Z,10.10
2023-04-15T23:46:11.878Z,10.10
2023-04-15T23:48:40.595Z,10.00
2023-04-15T23:51:10.089Z,10.00
2023-04-15T23:53:38.087Z,10.00
2023-04-15T23:56:06.954Z,10.00
2023-04-15T23:58:34.984Z,10.00
